Airfield :
LOGIN :

Register | Disclaimer

   EN    FR    IT 

 










Legend :    VFR   Marginal VFR   IFR   Intensive IFR   Very Intensive IFR
Visi :
Ceiling :
>= 8 km
>= 3000ft
5 to 8 km
1000 to 3000 ft
1500m to 5 km
500 to 1000 ft
800 to 1500m
200 to 500 ft
< 800m
< 200 ft
Symbols :   Thunderstorms  Fog  Heavy snow  Heavy precipitations  Wind > 20 kt
SIGMETs :     Misc.  Thunderstorms  Icing  Turbulence  Mountain Waves  Volcanic Ashes







- Airport Elevation : 256 ft
- IATA code : CFR
- Download approach charts


LFRK - Caen

CURRENT METAR :
  • 191300Z AUTO 04012KT 010V070 CAVOK 19/07 Q1028 TEMPO 07015G25KT

EXPIRED METARs :
  • 191230Z AUTO 04011KT 360V070 CAVOK 19/08 Q1028 TEMPO 07015G25KT
  • 191200Z AUTO 05011KT 010V090 CAVOK 19/07 Q1029 TEMPO 07015G25KT
  • 191130Z AUTO 07012KT 030V100 CAVOK 18/07 Q1029 TEMPO 07015G25KT
  • 191100Z AUTO 08010KT 050V110 CAVOK 18/07 Q1029 TEMPO 07015G25KT
  • 191030Z AUTO 07015KT CAVOK 17/06 Q1029 TEMPO 07015G25KT

TAF TAF LFRK
Valid from the 19 at 12:00 until the 19 at 21:00 UTC


191100Z 1912/1921 07015KT CAVOK
TEMPO 1912/1921 07015G25KT
Met : +33 2 31 26 68 11
No reported NOTAMs for that airfield.



MET'MAP, your aeronautical weather chart ! - Copyright ORBIFLY December 2007 - Disclaimer

ORBIFLY MET'MAP TEAM :

Programming & Development : Alexandra Zaïnal
Concept & Development : Baudouin d'Aumeries
Co-Development & Prog : Marc-Olivier Méhu
Technical & hardware support : Manuel Goepfert

Contact : metmap@orbifly.com




SOURCES & CREDITS :

   NOAA